createdAt,value
2022-07-29T00:01:58.125Z,10.73
2022-07-29T00:04:30.614Z,10.70
2022-07-29T00:07:01.336Z,10.43
2022-07-29T00:09:32.007Z,10.53
2022-07-29T00:12:04.412Z,11.63
2022-07-29T00:14:35.067Z,10.70
2022-07-29T00:17:05.839Z,10.13
2022-07-29T00:19:38.217Z,10.37
2022-07-29T00:22:08.058Z,10.33
2022-07-29T00:24:38.650Z,9.73
2022-07-29T00:27:09.284Z,10.00
2022-07-29T00:29:39.962Z,9.60
2022-07-29T00:32:11.028Z,9.73
2022-07-29T00:35:00.056Z,10.67
2022-07-29T00:37:30.647Z,11.03
2022-07-29T00:40:01.297Z,10.10
2022-07-29T00:42:32.035Z,9.73
2022-07-29T00:45:02.597Z,10.07
2022-07-29T00:47:33.135Z,9.93
2022-07-29T00:50:05.553Z,9.27
2022-07-29T00:52:36.931Z,9.57
2022-07-29T00:55:09.075Z,9.80
2022-07-29T00:57:40.525Z,9.83
2022-07-29T01:00:13.799Z,10.63
2022-07-29T01:02:44.526Z,9.60
2022-07-29T01:05:17.017Z,9.53
2022-07-29T01:07:48.583Z,9.70
2022-07-29T01:10:20.386Z,10.93
2022-07-29T01:12:52.930Z,12.03
2022-07-29T01:15:23.810Z,9.90
2022-07-29T01:18:02.605Z,10.70
2022-07-29T01:20:51.690Z,10.27
2022-07-29T01:23:56.431Z,9.98
2022-07-29T01:26:43.216Z,10.07
2022-07-29T01:29:26.077Z,11.83
2022-07-29T01:32:09.988Z,10.77
2022-07-29T01:35:05.810Z,10.63
2022-07-29T01:37:43.243Z,10.47
2022-07-29T01:40:20.153Z,10.83
2022-07-29T01:42:58.354Z,11.27
2022-07-29T01:45:38.034Z,11.45
2022-07-29T01:48:15.873Z,10.70
2022-07-29T01:50:52.077Z,10.27
2022-07-29T01:53:37.779Z,10.37
2022-07-29T01:56:10.260Z,10.83
2022-07-29T01:58:43.815Z,11.90
2022-07-29T02:01:18.574Z,10.40
2022-07-29T02:03:50.664Z,11.33
2022-07-29T02:06:24.872Z,11.60
2022-07-29T02:08:57.850Z,11.40
2022-07-29T02:11:28.559Z,11.13
2022-07-29T02:14:01.897Z,10.83
2022-07-29T02:16:36.432Z,11.83
2022-07-29T02:19:08.322Z,11.67
2022-07-29T02:21:39.825Z,10.70
2022-07-29T02:24:12.468Z,11.37
2022-07-29T02:26:45.417Z,10.50
2022-07-29T02:29:18.262Z,12.07
2022-07-29T02:31:51.874Z,11.43
2022-07-29T02:34:24.181Z,11.60
2022-07-29T02:36:55.984Z,11.57
2022-07-29T02:39:28.244Z,11.83
2022-07-29T02:42:05.293Z,12.63
2022-07-29T02:44:36.215Z,12.57
2022-07-29T02:47:14.644Z,12.47
2022-07-29T02:49:53.143Z,13.80
2022-07-29T02:52:30.111Z,13.00
2022-07-29T02:55:05.600Z,14.47
2022-07-29T02:57:54.996Z,13.43
2022-07-29T03:00:29.566Z,11.43
2022-07-29T03:03:07.117Z,12.60
2022-07-29T03:05:38.809Z,12.90
2022-07-29T03:08:12.204Z,12.57
2022-07-29T03:10:47.330Z,13.47
2022-07-29T03:13:18.994Z,12.43
2022-07-29T03:15:50.964Z,13.60
2022-07-29T03:18:23.543Z,13.57
2022-07-29T03:20:54.273Z,13.13
2022-07-29T03:23:25.794Z,13.27
2022-07-29T03:25:56.673Z,13.00
2022-07-29T03:28:29.136Z,14.00
2022-07-29T03:30:59.843Z,13.40
2022-07-29T03:33:32.429Z,14.23
2022-07-29T03:36:04.234Z,13.30
2022-07-29T03:38:37.658Z,13.27
2022-07-29T03:41:13.169Z,13.70
2022-07-29T03:43:49.521Z,13.87
2022-07-29T03:46:21.999Z,14.27
2022-07-29T03:48:59.710Z,12.97
2022-07-29T03:51:33.379Z,13.10
2022-07-29T03:54:13.866Z,13.67
2022-07-29T03:56:47.995Z,13.43
2022-07-29T03:59:21.589Z,13.57
2022-07-29T04:01:52.756Z,14.00
2022-07-29T04:04:25.538Z,15.10
2022-07-29T04:06:57.961Z,15.57
2022-07-29T04:09:28.565Z,12.90
2022-07-29T04:12:02.857Z,14.27
2022-07-29T04:14:36.021Z,15.07
2022-07-29T04:17:07.659Z,13.37
2022-07-29T04:19:39.935Z,13.90
2022-07-29T04:22:10.541Z,14.70
2022-07-29T04:24:44.205Z,14.50
2022-07-29T04:27:15.162Z,15.20
2022-07-29T04:29:56.020Z,15.23
2022-07-29T04:32:28.325Z,16.80
2022-07-29T04:35:03.084Z,14.67
2022-07-29T04:37:33.697Z,16.70
2022-07-29T04:40:04.326Z,15.87
2022-07-29T04:42:35.002Z,14.47
2022-07-29T04:45:22.269Z,27.97
2022-07-29T04:47:53.464Z,22.20
2022-07-29T04:50:25.726Z,19.40
2022-07-29T04:52:56.309Z,16.03
2022-07-29T04:55:26.928Z,16.83
2022-07-29T04:57:57.558Z,20.30
2022-07-29T05:00:33.598Z,16.33
2022-07-29T05:03:04.373Z,14.80
2022-07-29T05:05:36.566Z,15.53
2022-07-29T05:08:07.473Z,15.40
2022-07-29T05:10:39.861Z,15.27
2022-07-29T05:13:10.938Z,15.23
2022-07-29T05:15:42.084Z,14.33
2022-07-29T05:18:12.666Z,15.37
2022-07-29T05:20:44.830Z,17.77
2022-07-29T05:23:16.481Z,15.97
2022-07-29T05:25:48.014Z,14.63
2022-07-29T05:28:18.653Z,16.03
2022-07-29T05:30:50.113Z,16.80
2022-07-29T05:33:35.808Z,15.03
2022-07-29T05:36:09.518Z,14.30
2022-07-29T05:38:40.340Z,15.27
2022-07-29T05:41:10.959Z,14.77
2022-07-29T05:43:41.578Z,13.30
2022-07-29T05:46:12.177Z,13.53
2022-07-29T05:48:42.897Z,14.17
2022-07-29T05:51:15.237Z,13.13
2022-07-29T05:53:46.606Z,13.50
2022-07-29T05:56:17.615Z,12.70
2022-07-29T05:58:48.246Z,12.67
2022-07-29T06:01:18.980Z,15.27
2022-07-29T06:03:49.631Z,13.23
2022-07-29T06:06:21.916Z,12.87
2022-07-29T06:08:53.084Z,12.63
2022-07-29T06:11:23.642Z,13.33
2022-07-29T06:13:54.965Z,12.00
2022-07-29T06:16:30.297Z,15.33
2022-07-29T06:19:01.270Z,12.43
2022-07-29T06:21:33.573Z,13.10
2022-07-29T06:24:04.150Z,11.17
2022-07-29T06:26:37.820Z,11.80
2022-07-29T06:29:10.934Z,11.27
2022-07-29T06:31:41.797Z,12.37
2022-07-29T06:34:12.474Z,10.90
2022-07-29T06:36:46.064Z,10.77
2022-07-29T06:39:16.919Z,12.20
2022-07-29T06:41:52.222Z,11.13
2022-07-29T06:44:22.842Z,12.23
2022-07-29T06:46:53.542Z,11.00
2022-07-29T06:49:25.393Z,11.53
2022-07-29T06:51:57.888Z,10.40
2022-07-29T06:54:28.464Z,12.57
2022-07-29T06:56:59.042Z,14.00
2022-07-29T06:59:35.028Z,10.87
2022-07-29T07:02:06.367Z,12.37
2022-07-29T07:04:37.308Z,11.17
2022-07-29T07:07:09.566Z,11.07
2022-07-29T07:09:40.972Z,10.63
2022-07-29T07:12:12.018Z,11.33
2022-07-29T07:14:44.105Z,11.60
2022-07-29T07:17:14.701Z,13.03
2022-07-29T07:19:45.351Z,14.33
2022-07-29T07:22:17.645Z,12.30
2022-07-29T07:24:48.290Z,11.53
2022-07-29T07:27:18.948Z,12.23
2022-07-29T07:29:49.506Z,11.87
2022-07-29T07:32:20.291Z,12.27
2022-07-29T07:34:51.024Z,11.53
2022-07-29T07:37:23.283Z,11.50
2022-07-29T07:39:53.899Z,11.87
2022-07-29T07:42:24.701Z,11.83
2022-07-29T07:45:12.428Z,13.87
2022-07-29T07:47:44.359Z,13.55
2022-07-29T07:50:18.843Z,12.67
2022-07-29T07:52:56.776Z,12.87
2022-07-29T07:55:27.886Z,13.60
2022-07-29T07:57:58.990Z,12.20
2022-07-29T08:00:29.707Z,12.27
2022-07-29T08:03:00.559Z,12.87
2022-07-29T08:05:31.317Z,12.10
2022-07-29T08:08:03.600Z,12.90
2022-07-29T08:10:51.183Z,12.50
2022-07-29T08:13:22.420Z,12.80
2022-07-29T08:15:59.271Z,12.33
2022-07-29T08:18:30.706Z,12.10
2022-07-29T08:21:01.462Z,12.13
2022-07-29T08:23:47.087Z,12.23
2022-07-29T08:26:19.537Z,11.47
2022-07-29T08:28:52.070Z,18.20
2022-07-29T08:31:22.821Z,12.97
2022-07-29T08:33:53.507Z,12.77
2022-07-29T08:36:24.404Z,12.50
2022-07-29T08:38:56.649Z,13.30
2022-07-29T08:41:28.198Z,13.10
2022-07-29T08:43:59.114Z,13.30
2022-07-29T08:46:29.803Z,12.73
2022-07-29T08:49:00.558Z,13.03
2022-07-29T08:51:31.460Z,13.90
2022-07-29T08:54:04.213Z,12.70
2022-07-29T08:56:35.144Z,13.40
2022-07-29T08:59:08.449Z,15.17
2022-07-29T09:01:51.799Z,13.07
2022-07-29T09:04:23.914Z,14.70
2022-07-29T09:06:58.260Z,12.80
2022-07-29T09:09:30.902Z,12.80
2022-07-29T09:12:05.780Z,13.63
2022-07-29T09:14:36.359Z,13.23
2022-07-29T09:17:07.537Z,13.93
2022-07-29T09:19:45.522Z,15.47
2022-07-29T09:22:31.953Z,16.47
2022-07-29T09:25:04.283Z,13.23
2022-07-29T09:27:37.982Z,13.37
2022-07-29T09:30:12.331Z,13.73
2022-07-29T09:33:02.992Z,12.87
2022-07-29T09:35:35.115Z,11.83
2022-07-29T09:38:15.351Z,12.10
2022-07-29T09:41:05.371Z,12.47
2022-07-29T09:43:37.525Z,14.17
2022-07-29T09:46:17.940Z,11.90
2022-07-29T09:48:48.734Z,12.83
2022-07-29T09:51:37.868Z,13.20
2022-07-29T09:54:27.546Z,13.17
2022-07-29T09:56:59.860Z,12.85
2022-07-29T09:59:30.455Z,12.97
2022-07-29T10:02:02.549Z,14.10
2022-07-29T10:04:44.140Z,13.33
2022-07-29T10:07:15.115Z,13.47
2022-07-29T10:09:56.413Z,14.33
2022-07-29T10:12:29.385Z,13.23
2022-07-29T10:15:00.947Z,13.67
2022-07-29T10:17:32.905Z,12.13
2022-07-29T10:20:07.148Z,12.03
2022-07-29T10:22:54.109Z,12.80
2022-07-29T10:25:26.030Z,13.37
2022-07-29T10:27:59.206Z,12.53
2022-07-29T10:30:31.139Z,11.63
2022-07-29T10:33:19.818Z,11.80
2022-07-29T10:36:13.035Z,12.38
2022-07-29T10:38:56.555Z,12.70
2022-07-29T10:41:59.813Z,14.17
2022-07-29T10:44:32.615Z,14.83
2022-07-29T10:47:03.726Z,19.00
2022-07-29T10:49:34.537Z,17.57
2022-07-29T10:52:07.276Z,18.60
2022-07-29T10:54:49.463Z,16.30
2022-07-29T10:57:52.661Z,15.13
2022-07-29T11:00:34.170Z,15.17
2022-07-29T11:03:10.547Z,13.17
2022-07-29T11:05:59.772Z,12.47
2022-07-29T11:08:32.632Z,12.87
2022-07-29T11:11:43.768Z,12.50
2022-07-29T11:14:19.283Z,14.97
2022-07-29T11:17:09.589Z,14.73
2022-07-29T11:19:50.984Z,14.73
2022-07-29T11:22:36.803Z,14.13
2022-07-29T11:25:50.172Z,16.07
2022-07-29T11:28:22.814Z,13.80
2022-07-29T11:30:56.974Z,14.20
2022-07-29T11:33:54.383Z,13.60
2022-07-29T11:36:27.951Z,13.50
2022-07-29T11:39:36.882Z,14.03
2022-07-29T11:45:42.623Z,12.00
2022-07-29T11:48:28.541Z,14.07
2022-07-29T11:50:56.065Z,14.73
2022-07-29T11:53:32.401Z,14.20
2022-07-29T11:56:04.650Z,15.57
2022-07-29T11:58:36.088Z,16.43
2022-07-29T12:01:08.686Z,16.23
2022-07-29T12:03:39.309Z,14.67
2022-07-29T12:06:18.621Z,16.33
2022-07-29T12:08:51.810Z,15.90
2022-07-29T12:11:23.729Z,16.47
2022-07-29T12:13:54.985Z,17.53
2022-07-29T12:16:29.296Z,17.40
2022-07-29T12:19:04.555Z,18.17
2022-07-29T12:21:54.026Z,17.30
2022-07-29T12:24:27.780Z,18.23
2022-07-29T12:27:00.001Z,17.87
2022-07-29T12:29:34.988Z,18.67
2022-07-29T12:32:15.090Z,20.17
2022-07-29T12:34:50.803Z,19.93
2022-07-29T12:37:40.685Z,19.67
2022-07-29T12:40:13.459Z,19.73
2022-07-29T12:42:44.200Z,21.33
2022-07-29T12:45:15.027Z,21.43
2022-07-29T12:47:58.241Z,22.10
2022-07-29T12:50:28.848Z,21.40
2022-07-29T12:53:13.191Z,21.60
2022-07-29T12:55:50.751Z,21.90
2022-07-29T12:58:31.726Z,21.47
2022-07-29T13:01:17.386Z,21.03
2022-07-29T13:03:59.652Z,20.80
2022-07-29T13:06:39.718Z,22.10
2022-07-29T13:09:16.768Z,19.87
2022-07-29T13:11:49.043Z,19.83
2022-07-29T13:14:35.473Z,21.83
2022-07-29T13:17:09.508Z,21.40
2022-07-29T13:19:42.326Z,22.10
2022-07-29T13:22:13.746Z,20.40
2022-07-29T13:24:54.130Z,22.33
2022-07-29T13:27:26.529Z,21.40
2022-07-29T13:29:59.726Z,21.00
2022-07-29T13:32:31.353Z,20.87
2022-07-29T13:35:05.275Z,21.20
2022-07-29T13:37:36.722Z,20.10
2022-07-29T13:40:10.326Z,20.80
2022-07-29T13:42:41.051Z,21.40
2022-07-29T13:45:13.236Z,21.10
2022-07-29T13:47:49.244Z,20.80
2022-07-29T13:50:20.614Z,21.17
2022-07-29T13:52:52.418Z,18.83
2022-07-29T13:55:24.848Z,19.53
2022-07-29T13:57:55.474Z,19.97
2022-07-29T14:00:26.566Z,20.63
2022-07-29T14:02:57.174Z,18.40
2022-07-29T14:05:27.890Z,20.60
2022-07-29T14:07:58.592Z,20.30
2022-07-29T14:10:30.958Z,20.33
2022-07-29T14:13:01.608Z,19.43
2022-07-29T14:15:32.271Z,19.07
2022-07-29T14:18:03.000Z,19.00
2022-07-29T14:20:34.638Z,20.97
2022-07-29T14:23:05.440Z,21.17
2022-07-29T14:25:37.861Z,20.27
2022-07-29T14:28:11.628Z,20.70
2022-07-29T14:30:45.349Z,21.47
2022-07-29T14:33:16.144Z,22.33
2022-07-29T14:35:47.027Z,21.13
2022-07-29T14:38:17.649Z,22.43
2022-07-29T14:40:50.890Z,21.13
2022-07-29T14:43:21.875Z,20.80
2022-07-29T14:45:55.031Z,19.53
2022-07-29T14:48:27.900Z,20.10
2022-07-29T14:51:01.881Z,21.63
2022-07-29T14:53:35.578Z,19.03
2022-07-29T14:56:35.065Z,20.43
2022-07-29T14:58:59.401Z,20.00
2022-07-29T15:01:30.931Z,21.10
2022-07-29T15:04:01.610Z,19.13
2022-07-29T15:06:32.195Z,21.43
2022-07-29T15:09:02.797Z,21.20
2022-07-29T15:11:38.180Z,22.83
2022-07-29T15:14:09.441Z,21.70
2022-07-29T15:16:43.731Z,22.10
2022-07-29T15:19:18.584Z,21.50
2022-07-29T15:21:49.322Z,21.70
2022-07-29T15:24:20.444Z,21.97
2022-07-29T15:26:52.682Z,21.83
2022-07-29T15:29:23.855Z,20.30
2022-07-29T15:31:54.509Z,20.03
2022-07-29T15:34:25.409Z,20.67
2022-07-29T15:36:56.140Z,22.73
2022-07-29T15:39:26.791Z,20.77
2022-07-29T15:42:01.335Z,21.37
2022-07-29T15:44:32.293Z,21.20
2022-07-29T15:47:09.522Z,19.93
2022-07-29T15:49:47.970Z,19.33
2022-07-29T15:52:25.073Z,19.53
2022-07-29T15:54:57.618Z,18.40
2022-07-29T15:57:30.515Z,18.13
2022-07-29T16:00:01.152Z,18.63
2022-07-29T16:02:32.561Z,17.80
2022-07-29T16:05:03.137Z,18.13
2022-07-29T16:07:33.810Z,17.70
2022-07-29T16:10:04.642Z,17.10
2022-07-29T16:12:36.879Z,19.27
2022-07-29T16:15:10.230Z,18.70
2022-07-29T16:17:41.373Z,18.17
2022-07-29T16:20:14.045Z,18.50
2022-07-29T16:22:44.822Z,17.67
2022-07-29T16:25:15.432Z,18.90
2022-07-29T16:27:47.872Z,19.23
2022-07-29T16:30:18.528Z,19.10
2022-07-29T16:32:49.251Z,18.40
2022-07-29T16:35:19.926Z,16.37
2022-07-29T16:37:50.521Z,19.57
2022-07-29T16:40:21.292Z,18.27
2022-07-29T16:42:53.485Z,18.97
2022-07-29T16:45:24.166Z,17.80
2022-07-29T16:48:00.507Z,17.83
2022-07-29T16:50:32.259Z,17.30
2022-07-29T16:53:02.896Z,17.37
2022-07-29T16:55:33.426Z,18.50
2022-07-29T16:58:05.701Z,17.83
2022-07-29T17:00:36.405Z,17.33
2022-07-29T17:03:07.377Z,16.53
2022-07-29T17:05:50.412Z,17.17
2022-07-29T17:08:24.549Z,17.37
2022-07-29T17:10:55.519Z,16.13
2022-07-29T17:13:27.752Z,15.97
2022-07-29T17:16:00.590Z,17.77
2022-07-29T17:18:31.436Z,15.83
2022-07-29T17:21:02.005Z,16.60
2022-07-29T17:23:32.526Z,17.00
2022-07-29T17:26:03.178Z,17.00
2022-07-29T17:28:35.385Z,16.13
2022-07-29T17:31:06.018Z,15.17
2022-07-29T17:33:37.001Z,15.17
2022-07-29T17:36:24.489Z,16.83
2022-07-29T17:38:56.254Z,15.77
2022-07-29T17:41:28.277Z,15.90
2022-07-29T17:44:00.920Z,15.60
2022-07-29T17:46:31.840Z,15.37
2022-07-29T17:49:02.505Z,15.67
2022-07-29T17:51:33.300Z,16.50
2022-07-29T17:54:03.870Z,15.17
2022-07-29T17:56:34.731Z,15.40
2022-07-29T17:59:09.299Z,15.10
2022-07-29T18:01:42.155Z,14.33
2022-07-29T18:04:12.819Z,14.27
2022-07-29T18:06:43.364Z,14.07
2022-07-29T18:09:14.113Z,13.73
2022-07-29T18:11:45.770Z,12.40
2022-07-29T18:14:18.151Z,12.93
2022-07-29T18:16:48.895Z,11.97
2022-07-29T18:19:19.536Z,12.43
2022-07-29T18:21:54.455Z,12.33
2022-07-29T18:24:28.317Z,10.73
2022-07-29T18:26:59.141Z,10.93
2022-07-29T18:29:31.686Z,10.87
2022-07-29T18:32:02.476Z,10.90
2022-07-29T18:34:33.254Z,10.70
2022-07-29T18:37:03.970Z,10.20
2022-07-29T18:39:34.562Z,9.87
2022-07-29T18:42:05.230Z,9.77
2022-07-29T18:44:43.607Z,8.93
2022-07-29T18:47:14.611Z,10.13
2022-07-29T18:49:45.573Z,9.40
2022-07-29T18:52:16.197Z,8.87
2022-07-29T18:54:46.803Z,9.67
2022-07-29T18:57:54.745Z,8.70
2022-07-29T19:00:12.902Z,8.57
2022-07-29T19:02:43.699Z,8.87
2022-07-29T19:05:14.563Z,9.63
2022-07-29T19:07:45.184Z,9.30
2022-07-29T19:10:15.911Z,9.10
2022-07-29T19:12:46.535Z,9.40
2022-07-29T19:15:20.517Z,9.70
2022-07-29T19:17:51.514Z,9.63
2022-07-29T19:20:22.157Z,9.97
2022-07-29T19:22:52.682Z,7.97
2022-07-29T19:25:23.912Z,9.13
2022-07-29T19:27:54.435Z,10.50
2022-07-29T19:30:26.848Z,9.73
2022-07-29T19:32:57.474Z,9.67
2022-07-29T19:35:28.981Z,9.63
2022-07-29T19:38:00.323Z,9.23
2022-07-29T19:40:32.448Z,9.23
2022-07-29T19:43:03.032Z,9.50
2022-07-29T19:45:55.556Z,10.23
2022-07-29T19:48:26.218Z,10.00
2022-07-29T19:50:56.809Z,10.10
2022-07-29T19:53:27.499Z,9.47
2022-07-29T19:55:58.101Z,9.80
2022-07-29T19:58:28.694Z,9.27
2022-07-29T20:01:01.152Z,9.70
2022-07-29T20:03:31.726Z,10.13
2022-07-29T20:06:02.341Z,9.70
2022-07-29T20:08:32.845Z,9.83
2022-07-29T20:11:03.319Z,9.63
2022-07-29T20:13:34.476Z,8.63
2022-07-29T20:16:09.065Z,8.40
2022-07-29T20:18:39.727Z,8.87
2022-07-29T20:21:10.307Z,8.23
2022-07-29T20:23:40.895Z,7.73
2022-07-29T20:26:11.450Z,6.90
2022-07-29T20:28:43.530Z,6.73
2022-07-29T20:31:17.891Z,6.00
2022-07-29T20:33:48.532Z,5.93
2022-07-29T20:36:19.273Z,5.10
2022-07-29T20:38:49.798Z,5.00
2022-07-29T20:41:20.379Z,5.13
2022-07-29T20:43:51.159Z,5.47
2022-07-29T20:46:23.437Z,3.87
2022-07-29T20:48:54.418Z,4.20
2022-07-29T20:51:25.088Z,3.70
2022-07-29T20:53:55.613Z,3.20
2022-07-29T20:56:26.155Z,3.00
2022-07-29T20:58:56.729Z,2.60
2022-07-29T21:01:29.044Z,3.13
2022-07-29T21:03:59.660Z,3.03
2022-07-29T21:06:30.356Z,3.00
2022-07-29T21:09:01.911Z,2.67
2022-07-29T21:11:44.509Z,3.10
2022-07-29T21:14:28.305Z,3.07
2022-07-29T21:17:00.977Z,3.00
2022-07-29T21:19:31.701Z,3.37
2022-07-29T21:22:02.230Z,3.57
2022-07-29T21:24:32.902Z,3.50
2022-07-29T21:27:21.182Z,3.40
2022-07-29T21:29:52.278Z,3.28
2022-07-29T21:32:27.449Z,3.60
2022-07-29T21:35:00.810Z,3.40
2022-07-29T21:37:31.426Z,3.27
2022-07-29T21:40:01.984Z,3.40
2022-07-29T21:42:32.569Z,3.20
2022-07-29T21:45:03.517Z,3.50
2022-07-29T21:47:35.806Z,3.70
2022-07-29T21:50:06.550Z,4.00
2022-07-29T21:52:37.321Z,3.70
2022-07-29T21:55:09.424Z,3.87
2022-07-29T21:57:41.990Z,4.07
2022-07-29T22:00:16.430Z,4.23
2022-07-29T22:02:48.869Z,4.93
2022-07-29T22:05:19.424Z,4.30
2022-07-29T22:07:55.475Z,3.97
2022-07-29T22:10:28.081Z,4.07
2022-07-29T22:12:59.796Z,4.33
2022-07-29T22:15:30.744Z,4.47
2022-07-29T22:18:03.344Z,4.37
2022-07-29T22:20:33.910Z,4.10
2022-07-29T22:23:05.394Z,4.90
2022-07-29T22:25:36.367Z,3.83
2022-07-29T22:28:07.548Z,3.77
2022-07-29T22:30:38.119Z,3.97
2022-07-29T22:33:10.304Z,4.10
2022-07-29T22:35:49.185Z,4.30
2022-07-29T22:38:20.271Z,3.77
2022-07-29T22:40:52.039Z,4.10
2022-07-29T22:43:23.377Z,4.50
2022-07-29T22:45:54.338Z,4.40
2022-07-29T22:48:26.752Z,4.47
2022-07-29T22:50:57.339Z,4.80
2022-07-29T22:53:27.889Z,5.07
2022-07-29T22:55:58.443Z,4.67
2022-07-29T22:58:29.023Z,5.00
2022-07-29T23:00:59.640Z,4.40
2022-07-29T23:03:32.065Z,4.00
2022-07-29T23:06:02.684Z,4.30
2022-07-29T23:08:33.346Z,4.13
2022-07-29T23:11:04.053Z,3.17
2022-07-29T23:13:34.628Z,4.50
2022-07-29T23:16:05.104Z,3.87
2022-07-29T23:18:37.338Z,4.20
2022-07-29T23:21:08.036Z,3.60
2022-07-29T23:23:38.800Z,3.70
2022-07-29T23:26:09.379Z,4.03
2022-07-29T23:28:40.108Z,3.70
2022-07-29T23:31:10.699Z,3.53
2022-07-29T23:33:42.926Z,4.00
2022-07-29T23:36:13.644Z,3.93
2022-07-29T23:38:45.002Z,4.43
2022-07-29T23:41:15.659Z,4.20
2022-07-29T23:43:46.179Z,3.93
2022-07-29T23:46:16.859Z,5.50
2022-07-29T23:48:56.393Z,4.20
2022-07-29T23:51:26.991Z,3.63
2022-07-29T23:53:57.577Z,3.60
2022-07-29T23:56:28.187Z,4.17
2022-07-29T23:58:58.726Z,3.90
